Time;durP1;ratioP1;P1;durP2;ratioP2;P2;SDS_P1;SDS_P2;PMS_P1;PMS_P2;Temp;Humidity;BMP_temperature;BMP_pressure;BME280_temperature;BME280_humidity;BME280_pressure;Samples;Min_cycle;Max_cycle;Signal;HPM_P1;HPM_P2
2023/04/15 00:01:19;;;;;;;43.65;22.52;;;;;;;11.19;69.94;100442.31;5046024;28;20033;-52
2023/04/15 00:03:46;;;;;;;46.78;23.67;;;;;;;11.22;69.76;100439.50;5045442;28;20026;-49
2023/04/15 00:06:12;;;;;;;42.65;22.10;;;;;;;11.21;69.78;100440.44;5050744;28;20025;-48
2023/04/15 00:08:38;;;;;;;45.30;22.00;;;;;;;11.25;69.87;100441.94;5064391;28;20536;-49
2023/04/15 00:11:04;;;;;;;52.42;23.63;;;;;;;11.27;69.74;100440.03;5053144;28;20037;-49
2023/04/15 00:13:33;;;;;;;48.85;23.45;;;;;;;11.30;69.65;100436.38;5044969;28;20048;-50
2023/04/15 00:15:59;;;;;;;44.92;21.98;;;;;;;11.32;69.38;100436.25;5045471;28;20446;-56
2023/04/15 00:18:25;;;;;;;44.47;21.80;;;;;;;11.34;69.60;100432.59;5048911;28;20479;-57
2023/04/15 00:20:51;;;;;;;42.40;21.23;;;;;;;11.35;69.61;100425.50;5038644;28;20025;-51
2023/04/15 00:23:17;;;;;;;42.45;23.00;;;;;;;11.36;69.49;100430.66;5050493;28;20100;-52
2023/04/15 00:25:42;;;;;;;43.67;22.02;;;;;;;11.36;69.48;100424.56;5042910;28;20116;-52
2023/04/15 00:28:08;;;;;;;38.83;20.35;;;;;;;11.38;69.63;100420.06;5052579;28;20083;-52
2023/04/15 00:30:33;;;;;;;41.97;21.38;;;;;;;11.40;69.61;100424.25;5053314;28;20032;-51
2023/04/15 00:33:01;;;;;;;45.67;20.95;;;;;;;11.41;69.58;100419.84;5044689;28;20029;-51
2023/04/15 00:35:26;;;;;;;40.92;20.42;;;;;;;11.42;69.49;100421.50;5042398;28;20041;-50
2023/04/15 00:37:52;;;;;;;39.97;21.30;;;;;;;11.44;69.71;100414.34;5048821;28;20021;-53
2023/04/15 00:40:19;;;;;;;42.40;20.48;;;;;;;11.50;69.54;100428.91;5041709;28;20018;-49
2023/04/15 00:42:45;;;;;;;41.70;21.38;;;;;;;11.50;69.44;100424.50;5043403;28;20372;-57
2023/04/15 00:45:10;;;;;;;41.63;19.70;;;;;;;11.55;69.37;100418.91;5052605;28;20057;-52
2023/04/15 00:47:40;;;;;;;41.03;20.38;;;;;;;11.57;69.50;100420.50;5046136;28;20390;-55
2023/04/15 00:50:06;;;;;;;39.42;21.35;;;;;;;11.54;69.60;100420.72;5051083;28;20021;-49
2023/04/15 00:52:32;;;;;;;36.72;18.98;;;;;;;11.54;69.53;100415.44;5035704;28;20091;-56
2023/04/15 00:54:58;;;;;;;38.33;19.77;;;;;;;11.57;69.38;100425.75;5036705;28;20450;-51
2023/04/15 00:57:24;;;;;;;39.58;20.55;;;;;;;11.57;69.37;100425.75;5036856;28;20044;-53
2023/04/15 00:59:52;;;;;;;36.45;19.98;;;;;;;11.61;69.28;100415.88;5016298;28;20100;-59
2023/04/15 01:02:18;;;;;;;39.58;19.70;;;;;;;11.61;69.48;100417.66;5037625;28;20024;-52
2023/04/15 01:04:43;;;;;;;35.65;18.65;;;;;;;11.61;69.36;100420.28;5049656;28;20039;-52
2023/04/15 01:07:09;;;;;;;40.00;20.52;;;;;;;11.61;69.59;100418.50;5050448;28;20068;-56
2023/04/15 01:09:34;;;;;;;35.20;19.75;;;;;;;11.62;69.59;100414.06;5039052;28;20068;-58
2023/04/15 01:12:01;;;;;;;35.92;20.33;;;;;;;11.61;69.48;100410.59;5036319;28;20420;-49
2023/04/15 01:14:27;;;;;;;39.88;19.30;;;;;;;11.61;69.44;100412.38;5037182;28;20551;-51
2023/04/15 01:16:53;;;;;;;34.95;18.85;;;;;;;11.61;69.59;100410.59;5052473;28;20025;-56
2023/04/15 01:19:19;;;;;;;33.25;18.38;;;;;;;11.62;69.51;100412.28;5044752;28;20044;-50
2023/04/15 01:21:44;;;;;;;34.53;19.20;;;;;;;11.68;69.44;100413.66;5042912;28;20100;-49
2023/04/15 01:24:12;;;;;;;40.80;19.98;;;;;;;11.70;69.36;100414.41;5038051;28;20111;-51
2023/04/15 01:26:39;;;;;;;33.13;19.02;;;;;;;11.70;69.49;100415.25;5042509;28;20041;-58
2023/04/15 01:29:05;;;;;;;36.78;19.05;;;;;;;11.73;69.41;100416.81;5042529;28;20033;-51
2023/04/15 01:31:35;;;;;;;34.92;18.50;;;;;;;11.76;69.32;100415.78;5043172;28;20017;-51
2023/04/15 01:34:01;;;;;;;31.30;17.02;;;;;;;11.80;69.50;100418.09;5043979;28;20045;-56
2023/04/15 01:36:26;;;;;;;39.20;19.77;;;;;;;11.79;69.21;100419.06;5050933;28;20029;-50
2023/04/15 01:38:53;;;;;;;30.80;16.23;;;;;;;11.78;69.37;100414.72;5046250;28;20029;-52
2023/04/15 01:41:27;;;;;;;32.97;16.88;;;;;;;11.81;69.42;100411.03;5048446;28;20029;-56
2023/04/15 01:43:54;;;;;;;29.63;17.80;;;;;;;11.79;69.49;100413.78;5045555;28;20060;-54
2023/04/15 01:46:19;;;;;;;38.83;18.27;;;;;;;11.80;69.49;100420.75;5044877;28;20025;-55
2023/04/15 01:48:45;;;;;;;29.45;16.88;;;;;;;11.83;69.47;100420.53;5039507;28;20029;-57
2023/04/15 01:51:10;;;;;;;31.85;17.48;;;;;;;11.84;69.52;100419.59;5026298;28;20037;-56
2023/04/15 01:53:36;;;;;;;30.58;17.20;;;;;;;11.87;69.62;100413.25;5046931;28;20029;-57
2023/04/15 01:56:02;;;;;;;29.67;16.55;;;;;;;11.89;69.59;100406.09;5040266;28;20052;-57
2023/04/15 01:58:27;;;;;;;31.33;17.40;;;;;;;11.92;69.47;100420.84;5045360;28;20040;-58
2023/04/15 02:00:53;;;;;;;29.77;18.00;;;;;;;11.94;69.48;100411.03;5047397;28;20039;-51
2023/04/15 02:03:18;;;;;;;27.63;15.98;;;;;;;11.95;69.44;100405.66;5044507;28;20107;-57
2023/04/15 02:05:44;;;;;;;28.08;15.88;;;;;;;12.00;69.25;100413.28;5043224;28;20037;-53
2023/04/15 02:08:10;;;;;;;29.10;16.63;;;;;;;12.04;69.18;100407.69;5029875;28;20087;-57
2023/04/15 02:10:35;;;;;;;16.92;9.45;;;;;;;12.08;69.28;100408.31;5041805;28;20025;-54
2023/04/15 02:13:00;;;;;;;32.67;15.50;;;;;;;12.09;69.10;100399.47;5027951;28;20039;-56
2023/04/15 02:15:26;;;;;;;26.55;14.63;;;;;;;12.06;69.23;100399.66;5043606;28;20935;-56
2023/04/15 02:17:54;;;;;;;26.73;14.02;;;;;;;12.08;69.15;100402.22;5047324;28;20033;-55
2023/04/15 02:20:20;;;;;;;26.42;14.10;;;;;;;12.09;69.29;100403.91;5040258;28;20128;-57
2023/04/15 02:22:47;;;;;;;24.98;12.88;;;;;;;12.10;69.04;100416.16;5045987;28;20492;-55
2023/04/15 02:25:13;;;;;;;24.15;13.43;;;;;;;12.10;68.97;100416.97;5037321;28;20171;-55
2023/04/15 02:27:38;;;;;;;22.63;13.05;;;;;;;12.11;69.03;100413.38;5045612;28;20031;-57
2023/04/15 02:30:04;;;;;;;21.95;13.02;;;;;;;12.13;68.94;100414.13;5046804;28;20033;-54
2023/04/15 02:32:30;;;;;;;22.23;12.27;;;;;;;12.13;69.02;100415.91;5038824;28;20090;-57
2023/04/15 02:34:55;;;;;;;18.35;12.40;;;;;;;12.13;68.74;100416.78;5042812;28;20425;-57
2023/04/15 02:37:22;;;;;;;19.20;11.02;;;;;;;12.15;68.83;100414.00;5039755;28;20037;-57
2023/04/15 02:39:47;;;;;;;19.33;11.05;;;;;;;12.15;68.67;100414.88;5042475;28;20037;-55
2023/04/15 02:42:12;;;;;;;19.98;11.25;;;;;;;12.12;68.52;100415.06;5047214;28;20395;-55
2023/04/15 02:44:38;;;;;;;16.17;10.75;;;;;;;12.11;68.45;100413.38;5037826;28;20021;-57
2023/04/15 02:47:05;;;;;;;28.13;12.02;;;;;;;12.10;68.51;100406.44;5042114;28;20052;-56
2023/04/15 02:49:31;;;;;;;17.65;11.00;;;;;;;12.10;68.46;100421.41;5037111;28;20061;-57
2023/04/15 02:51:58;;;;;;;15.63;10.30;;;;;;;12.09;68.61;100425.84;5026446;28;20029;-57
2023/04/15 02:54:27;;;;;;;15.63;10.05;;;;;;;12.09;68.54;100423.19;5045741;28;20037;-56
2023/04/15 02:56:54;;;;;;;22.20;11.30;;;;;;;12.08;68.40;100424.16;5045066;28;20029;-55
2023/04/15 02:59:19;;;;;;;18.63;10.25;;;;;;;12.07;68.14;100424.25;5047213;28;20398;-54
2023/04/15 03:01:45;;;;;;;18.50;11.38;;;;;;;12.08;68.38;100429.41;5036842;28;20032;-56
2023/04/15 03:04:10;;;;;;;15.30;9.45;;;;;;;12.08;68.13;100428.59;5044014;28;20074;-55
2023/04/15 03:06:36;;;;;;;19.55;10.60;;;;;;;12.09;68.28;100425.00;5039285;28;20411;-53
2023/04/15 03:09:02;;;;;;;20.70;10.70;;;;;;;12.10;68.33;100419.59;5026083;28;20044;-55
2023/04/15 03:11:31;;;;;;;17.30;9.77;;;;;;;12.14;68.27;100422.88;5044832;28;20037;-52
2023/04/15 03:13:57;;;;;;;19.90;10.30;;;;;;;12.14;68.40;100429.00;5040769;28;20029;-57
2023/04/15 03:16:23;;;;;;;16.30;9.60;;;;;;;12.16;68.18;100424.47;5035809;28;20029;-57
2023/04/15 03:18:48;;;;;;;18.98;10.55;;;;;;;12.19;68.09;100431.31;5035564;28;20082;-57
2023/04/15 03:21:14;;;;;;;18.30;9.80;;;;;;;12.20;68.09;100436.47;5038146;28;20032;-53
2023/04/15 03:23:39;;;;;;;18.27;10.38;;;;;;;12.23;68.07;100432.81;5043925;28;20029;-55
2023/04/15 03:26:05;;;;;;;16.27;9.70;;;;;;;12.23;67.73;100432.81;5035545;28;20365;-57
2023/04/15 03:28:31;;;;;;;16.05;9.82;;;;;;;12.25;67.93;100440.59;5040386;28;20021;-57
2023/04/15 03:30:57;;;;;;;15.85;9.68;;;;;;;12.25;67.78;100445.88;5041475;28;20033;-55
2023/04/15 03:33:23;;;;;;;14.98;9.93;;;;;;;12.28;67.80;100440.38;5039554;28;20059;-57
2023/04/15 03:35:50;;;;;;;16.50;10.13;;;;;;;12.28;67.71;100443.84;5045955;28;20053;-55
2023/04/15 03:38:16;;;;;;;17.67;9.98;;;;;;;12.28;67.63;100445.66;5038976;28;20045;-56
2023/04/15 03:40:42;;;;;;;14.70;9.52;;;;;;;12.27;67.56;100447.44;5044738;28;20115;-56
2023/04/15 03:43:07;;;;;;;14.93;9.57;;;;;;;12.27;67.38;100441.34;5040803;28;20418;-57
2023/04/15 03:45:32;;;;;;;15.73;9.73;;;;;;;12.27;67.53;100446.63;5041280;28;20357;-54
2023/04/15 03:47:58;;;;;;;17.55;10.57;;;;;;;12.27;67.33;100454.53;5046692;28;20630;-56
2023/04/15 03:50:23;;;;;;;30.10;16.95;;;;;;;12.26;67.02;100450.19;5043257;28;20068;-56
2023/04/15 03:52:49;;;;;;;20.75;11.07;;;;;;;12.26;66.99;100447.56;5037835;28;20033;-54
2023/04/15 03:55:15;;;;;;;14.07;9.57;;;;;;;12.25;66.95;100451.97;5038531;28;20048;-56
2023/04/15 03:57:40;;;;;;;14.43;8.90;;;;;;;12.22;66.90;100449.56;5041920;28;20029;-56
2023/04/15 04:00:08;;;;;;;19.63;12.63;;;;;;;12.22;66.89;100461.91;5039608;28;20044;-57
2023/04/15 04:02:33;;;;;;;31.70;16.48;;;;;;;12.19;66.73;100450.63;5039512;28;20113;-56
2023/04/15 04:04:59;;;;;;;16.33;10.90;;;;;;;12.18;66.71;100446.28;5039755;28;20104;-54
2023/04/15 04:07:25;;;;;;;14.27;9.20;;;;;;;12.15;66.87;100449.16;5036100;28;20530;-52
2023/04/15 04:09:50;;;;;;;16.48;10.32;;;;;;;12.15;66.81;100457.06;5044472;28;20033;-57
2023/04/15 04:12:16;;;;;;;18.98;9.82;;;;;;;12.14;66.66;100460.66;5039034;28;20022;-55
2023/04/15 04:14:41;;;;;;;24.95;10.77;;;;;;;12.12;66.68;100462.56;5038975;28;20036;-53
2023/04/15 04:17:07;;;;;;;16.55;10.02;;;;;;;12.10;66.79;100467.09;5038602;28;20041;-56
2023/04/15 04:19:33;;;;;;;15.70;9.88;;;;;;;12.10;66.70;100469.72;5038161;28;20127;-56
2023/04/15 04:21:59;;;;;;;14.63;9.13;;;;;;;12.12;66.48;100465.19;5040146;28;20033;-57
2023/04/15 04:24:24;;;;;;;16.05;9.40;;;;;;;12.11;66.43;100468.78;5038200;28;20475;-51
2023/04/15 04:26:50;;;;;;;18.83;10.57;;;;;;;12.12;66.40;100473.09;5042127;28;20029;-57
2023/04/15 04:29:15;;;;;;;17.88;10.70;;;;;;;12.12;66.49;100477.50;5044156;28;20108;-57
2023/04/15 04:31:41;;;;;;;16.50;10.60;;;;;;;12.11;66.53;100474.03;5038554;28;20430;-52
2023/04/15 04:34:06;;;;;;;14.75;9.07;;;;;;;12.12;66.31;100478.38;5027215;28;20025;-54
2023/04/15 04:36:32;;;;;;;20.13;11.82;;;;;;;12.12;66.29;100481.00;5048929;28;20037;-57
2023/04/15 04:38:57;;;;;;;63.08;33.35;;;;;;;12.13;66.31;100476.56;5044954;28;20031;-56
2023/04/15 04:41:23;;;;;;;21.42;12.93;;;;;;;12.14;66.32;100473.84;5045664;28;21119;-56
2023/04/15 04:43:48;;;;;;;16.90;10.68;;;;;;;12.13;66.39;100480.06;5046297;28;20025;-54
2023/04/15 04:46:13;;;;;;;20.58;12.65;;;;;;;12.14;66.32;100483.53;5040261;28;20525;-51
2023/04/15 04:48:39;;;;;;;20.42;10.25;;;;;;;12.14;66.22;100481.75;5043473;28;20032;-56
2023/04/15 04:51:05;;;;;;;19.48;10.50;;;;;;;12.16;66.25;100479.00;5038014;28;20035;-57
2023/04/15 04:53:30;;;;;;;21.77;10.80;;;;;;;12.18;66.08;100483.22;5040964;28;20048;-57
2023/04/15 04:55:56;;;;;;;19.00;10.88;;;;;;;12.25;65.97;100482.81;5048990;28;20041;-57
2023/04/15 04:58:21;;;;;;;62.00;32.10;;;;;;;12.26;65.91;100480.03;5042808;28;20040;-57
2023/04/15 05:00:47;;;;;;;30.48;14.07;;;;;;;12.25;65.72;100486.28;5046092;28;20140;-57
2023/04/15 05:03:12;;;;;;;19.95;10.05;;;;;;;12.28;65.91;100482.59;5039143;28;20029;-57
2023/04/15 05:05:39;;;;;;;19.20;10.60;;;;;;;12.29;65.88;100485.13;5036543;28;20075;-56
2023/04/15 05:08:06;;;;;;;17.35;10.73;;;;;;;12.29;65.75;100490.41;5042549;28;20037;-57
2023/04/15 05:10:31;;;;;;;16.52;10.77;;;;;;;12.29;65.80;100485.13;5049984;28;20098;-57
2023/04/15 05:12:57;;;;;;;16.55;10.35;;;;;;;12.35;65.80;100489.13;5048977;28;20669;-57
2023/04/15 05:15:22;;;;;;;17.80;10.35;;;;;;;12.34;65.81;100490.94;5038868;28;20776;-52
2023/04/15 05:17:48;;;;;;;22.23;11.50;;;;;;;12.33;65.73;100491.00;5042769;28;20047;-57
2023/04/15 05:20:14;;;;;;;17.45;11.45;;;;;;;12.33;65.67;100488.38;5048718;28;20457;-56
2023/04/15 05:22:40;;;;;;;18.33;11.80;;;;;;;12.34;65.52;100490.94;5046908;28;20072;-58
2023/04/15 05:25:06;;;;;;;16.95;9.98;;;;;;;12.36;65.62;100496.09;5044842;28;20912;-56
2023/04/15 05:27:31;;;;;;;20.08;12.13;;;;;;;12.36;65.51;100496.09;5046566;28;20124;-57
2023/04/15 05:29:57;;;;;;;16.23;11.05;;;;;;;12.36;65.70;100501.38;5043052;28;20116;-55
2023/04/15 05:32:22;;;;;;;20.50;9.35;;;;;;;12.38;65.61;100504.75;5037322;28;20083;-57
2023/04/15 05:34:48;;;;;;;18.55;10.38;;;;;;;12.39;65.66;100501.16;5044394;28;20083;-55
2023/04/15 05:37:13;;;;;;;15.57;9.70;;;;;;;12.43;65.42;100502.66;5043780;28;20035;-53
2023/04/15 05:39:38;;;;;;;21.35;11.15;;;;;;;12.45;65.42;100505.16;5045643;28;20020;-58
2023/04/15 05:42:04;;;;;;;38.75;22.00;;;;;;;12.46;65.50;100504.22;5045646;28;20040;-57
2023/04/15 05:44:30;;;;;;;21.23;12.75;;;;;;;12.49;65.33;100496.09;5043915;28;20033;-57
2023/04/15 05:46:56;;;;;;;21.33;12.27;;;;;;;12.52;65.29;100489.75;5032050;28;20036;-57
2023/04/15 05:49:22;;;;;;;18.05;11.43;;;;;;;12.53;65.09;100508.13;5032038;28;20033;-53
2023/04/15 05:51:47;;;;;;;16.85;10.50;;;;;;;12.54;65.22;100504.53;5046770;28;20041;-54
2023/04/15 05:54:13;;;;;;;19.60;10.88;;;;;;;12.55;65.14;100500.09;5046539;28;20056;-57
2023/04/15 05:56:38;;;;;;;17.85;10.40;;;;;;;12.59;65.08;100505.03;5037651;28;20091;-56
2023/04/15 05:59:04;;;;;;;18.52;11.18;;;;;;;12.62;64.80;100506.66;5043650;28;20033;-55
2023/04/15 06:01:29;;;;;;;19.70;11.60;;;;;;;12.65;64.91;100511.69;5042926;28;20033;-56
2023/04/15 06:03:55;;;;;;;19.92;11.85;;;;;;;12.64;64.76;100510.00;5041725;28;20025;-53
2023/04/15 06:06:21;;;;;;;17.80;9.93;;;;;;;12.66;64.83;100513.38;5028278;28;20060;-57
2023/04/15 06:08:46;;;;;;;15.32;9.95;;;;;;;12.67;64.78;100515.06;5028670;28;20051;-54
2023/04/15 06:11:13;;;;;;;14.75;9.88;;;;;;;12.71;64.70;100511.25;5038320;28;20187;-57
2023/04/15 06:13:38;;;;;;;18.45;10.63;;;;;;;12.72;64.73;100518.22;5041740;28;20074;-53
2023/04/15 06:16:04;;;;;;;19.77;10.40;;;;;;;12.76;64.79;100511.78;5036699;28;20028;-56
2023/04/15 06:18:29;;;;;;;16.00;10.35;;;;;;;12.84;64.80;100519.16;5044181;28;20037;-57
2023/04/15 06:20:55;;;;;;;18.42;11.57;;;;;;;12.87;64.70;100520.75;5047516;28;20111;-56
2023/04/15 06:23:20;;;;;;;19.88;10.57;;;;;;;12.91;64.56;100523.03;5043120;28;20483;-56
2023/04/15 06:25:46;;;;;;;20.08;10.82;;;;;;;12.96;64.43;100525.34;5046296;28;20021;-57
2023/04/15 06:28:12;;;;;;;15.10;10.13;;;;;;;13.01;64.35;100528.53;5047508;28;20630;-56
2023/04/15 06:30:37;;;;;;;18.40;10.73;;;;;;;13.03;64.30;100526.63;5046155;28;20116;-56
2023/04/15 06:33:06;;;;;;;17.77;10.77;;;;;;;13.05;64.24;100524.72;5043063;28;22815;-51
2023/04/15 06:35:32;;;;;;;19.65;11.20;;;;;;;13.15;64.11;100527.53;5036079;28;20064;-57
2023/04/15 06:37:57;;;;;;;16.27;10.65;;;;;;;13.17;63.78;100525.59;5037507;28;20531;-54
2023/04/15 06:40:23;;;;;;;20.42;11.10;;;;;;;13.21;63.76;100529.72;5033966;28;20031;-57
2023/04/15 06:42:48;;;;;;;16.48;10.90;;;;;;;13.28;63.60;100530.13;5033064;28;20028;-57
2023/04/15 06:45:13;;;;;;;18.45;11.27;;;;;;;13.32;63.79;100531.59;5032620;28;20136;-53
2023/04/15 06:47:39;;;;;;;17.35;11.07;;;;;;;13.39;63.51;100532.00;5032044;28;20043;-58
2023/04/15 06:50:05;;;;;;;14.05;9.30;;;;;;;13.41;63.82;100525.66;5033630;28;20039;-56
2023/04/15 06:52:30;;;;;;;18.17;10.77;;;;;;;13.45;63.74;100530.72;5043107;28;20029;-57
2023/04/15 06:54:58;;;;;;;15.30;10.65;;;;;;;13.51;63.56;100538.22;5031722;28;21630;-51
2023/04/15 06:57:23;;;;;;;14.40;9.93;;;;;;;13.55;63.35;100534.38;5036051;28;20195;-57
2023/04/15 06:59:50;;;;;;;17.50;10.43;;;;;;;13.59;63.46;100538.47;5037929;28;20433;-55
2023/04/15 07:02:16;;;;;;;19.48;11.00;;;;;;;13.64;63.26;100546.06;5045285;28;20052;-52
2023/04/15 07:04:41;;;;;;;17.65;11.63;;;;;;;13.68;63.22;100551.03;5043182;28;20024;-56
2023/04/15 07:07:07;;;;;;;19.27;11.02;;;;;;;13.72;62.97;100544.53;5029974;28;20028;-57
2023/04/15 07:09:33;;;;;;;21.30;10.38;;;;;;;13.78;62.85;100545.06;5045195;28;20094;-51
2023/04/15 07:11:58;;;;;;;16.27;10.70;;;;;;;13.85;62.93;100548.91;5039164;28;20029;-51
2023/04/15 07:14:24;;;;;;;20.17;11.93;;;;;;;13.91;62.90;100553.75;5042599;28;20390;-55
2023/04/15 07:16:49;;;;;;;18.08;12.40;;;;;;;13.95;62.90;100552.56;5034626;28;20495;-53
2023/04/15 07:19:15;;;;;;;24.38;13.18;;;;;;;14.03;62.63;100552.81;5040928;28;20637;-50
2023/04/15 07:21:41;;;;;;;21.50;12.82;;;;;;;14.07;62.56;100552.59;5043867;28;20047;-53
2023/04/15 07:24:07;;;;;;;17.30;10.93;;;;;;;14.10;62.45;100555.03;5025115;28;20028;-52
2023/04/15 07:26:33;;;;;;;18.80;10.73;;;;;;;14.12;62.43;100553.09;5020730;28;20107;-54
2023/04/15 07:28:58;;;;;;;18.17;10.68;;;;;;;14.13;62.23;100554.81;5034659;28;20059;-54
2023/04/15 07:31:24;;;;;;;17.02;10.68;;;;;;;14.15;62.12;100552.84;5043223;28;20032;-56
2023/04/15 07:33:49;;;;;;;21.77;12.13;;;;;;;14.16;62.13;100557.19;5028434;28;20508;-56
2023/04/15 07:36:14;;;;;;;18.13;11.15;;;;;;;14.19;62.21;100554.31;5036661;28;20124;-56
2023/04/15 07:38:40;;;;;;;17.08;11.05;;;;;;;14.20;61.80;100556.00;5043228;28;20033;-54
2023/04/15 07:41:06;;;;;;;18.08;10.68;;;;;;;14.18;61.83;100558.78;5048342;28;20033;-56
2023/04/15 07:43:31;;;;;;;19.95;11.45;;;;;;;14.17;61.83;100565.03;5037486;28;20026;-56
2023/04/15 07:45:56;;;;;;;19.45;10.75;;;;;;;14.17;61.79;100569.47;5039700;28;20036;-54
2023/04/15 07:48:22;;;;;;;20.33;11.32;;;;;;;14.18;61.71;100560.56;5033377;28;21204;-55
2023/04/15 07:50:47;;;;;;;21.90;11.00;;;;;;;14.16;61.74;100567.78;5033717;28;20046;-56
2023/04/15 07:53:13;;;;;;;19.27;10.98;;;;;;;14.14;61.71;100569.72;5029598;28;20033;-54
2023/04/15 07:55:39;;;;;;;17.13;11.20;;;;;;;14.17;61.73;100569.47;5029696;28;20151;-55
2023/04/15 07:58:04;;;;;;;17.92;10.98;;;;;;;14.17;61.40;100564.16;5039950;28;20165;-54
2023/04/15 08:00:30;;;;;;;16.95;11.40;;;;;;;14.18;61.67;100576.44;5044975;28;20029;-54
2023/04/15 08:02:58;;;;;;;18.70;10.68;;;;;;;14.18;61.63;100574.66;5033823;28;20161;-54
2023/04/15 08:05:24;;;;;;;17.63;11.40;;;;;;;14.18;61.43;100571.16;5043048;28;20164;-52
2023/04/15 08:07:50;;;;;;;19.60;11.38;;;;;;;14.21;61.52;100575.38;5042211;28;20021;-52
2023/04/15 08:10:16;;;;;;;22.55;14.52;;;;;;;14.21;61.52;100576.22;5047623;28;20074;-53
2023/04/15 08:12:41;;;;;;;20.92;13.77;;;;;;;14.22;61.53;100580.56;5052270;28;20036;-58
2023/04/15 08:15:08;;;;;;;17.30;10.90;;;;;;;14.21;61.49;100575.38;5049342;28;20963;-55
2023/04/15 08:17:33;;;;;;;16.50;10.30;;;;;;;14.25;61.41;100588.25;5046627;28;20029;-56
2023/04/15 08:19:59;;;;;;;15.50;10.40;;;;;;;14.25;61.38;100580.31;5043629;28;20535;-56
2023/04/15 08:22:24;;;;;;;15.88;10.40;;;;;;;14.24;61.46;100586.56;5028273;28;20386;-55
2023/04/15 08:24:50;;;;;;;18.45;10.73;;;;;;;14.26;61.54;100581.16;5044845;28;20178;-56
2023/04/15 08:27:16;;;;;;;19.55;11.75;;;;;;;14.30;61.44;100577.31;5050830;28;20505;-56
2023/04/15 08:29:41;;;;;;;22.38;14.35;;;;;;;14.32;61.36;100583.34;5047909;28;20111;-55
2023/04/15 08:32:08;;;;;;;21.98;14.38;;;;;;;14.36;61.49;100586.59;5051006;28;20107;-56
2023/04/15 08:34:34;;;;;;;18.15;11.68;;;;;;;14.41;61.28;100587.09;5044333;28;20171;-55
2023/04/15 08:36:59;;;;;;;19.48;11.38;;;;;;;14.44;61.25;100597.47;5013154;28;20368;-55
2023/04/15 08:39:26;;;;;;;16.85;10.60;;;;;;;14.43;61.35;100582.53;5040757;28;20087;-55
2023/04/15 08:41:59;;;;;;;18.35;11.60;;;;;;;14.45;61.25;100586.75;5048366;28;20048;-52
2023/04/15 08:44:25;;;;;;;17.95;12.07;;;;;;;14.46;61.18;100583.13;5041805;28;20041;-55
2023/04/15 08:46:53;;;;;;;19.80;11.23;;;;;;;14.47;61.11;100592.75;5015251;28;20020;-56
2023/04/15 08:49:21;;;;;;;19.05;10.80;;;;;;;14.51;61.04;100590.72;5038244;28;20029;-56
2023/04/15 08:51:48;;;;;;;24.27;11.65;;;;;;;14.53;61.08;100596.75;5071086;22;20058;-52
2023/04/15 08:54:14;;;;;;;16.98;10.43;;;;;;;14.54;61.22;100593.13;5058154;28;20033;-51
2023/04/15 08:56:39;;;;;;;26.45;14.95;;;;;;;14.58;61.01;100599.88;5060733;28;20021;-52
2023/04/15 08:59:06;;;;;;;19.25;12.07;;;;;;;14.57;61.00;100603.50;5045141;28;20104;-54
2023/04/15 09:01:31;;;;;;;18.13;11.80;;;;;;;14.56;61.05;100601.81;5046834;28;20024;-51
2023/04/15 09:03:58;;;;;;;22.25;11.82;;;;;;;14.58;61.02;100605.19;5045464;28;20035;-50
2023/04/15 09:06:25;;;;;;;19.27;11.18;;;;;;;14.61;61.01;100606.75;5048049;28;20036;-55
2023/04/15 09:08:51;;;;;;;17.00;11.85;;;;;;;14.59;61.02;100604.22;5047414;28;20024;-53
2023/04/15 09:11:18;;;;;;;19.45;11.55;;;;;;;14.54;61.18;100611.66;5053298;28;20618;-54
2023/04/15 09:13:44;;;;;;;19.45;11.00;;;;;;;14.53;61.12;100617.91;5044199;28;20033;-52
2023/04/15 09:16:09;;;;;;;20.90;12.68;;;;;;;14.51;60.96;100614.53;5047780;28;20371;-51
2023/04/15 09:18:36;;;;;;;20.25;11.68;;;;;;;14.51;61.22;100613.72;5044091;28;20055;-53
2023/04/15 09:21:10;;;;;;;18.90;11.57;;;;;;;14.54;61.07;100602.88;5049674;28;20032;-52
2023/04/15 09:23:37;;;;;;;18.67;10.88;;;;;;;14.53;61.00;100612.63;5049442;28;20070;-52
2023/04/15 09:26:03;;;;;;;19.73;10.70;;;;;;;14.52;60.94;100610.94;5041473;28;20063;-55
2023/04/15 09:28:29;;;;;;;21.25;12.18;;;;;;;14.53;61.06;100620.56;5047476;28;20123;-51
2023/04/15 09:30:58;;;;;;;18.58;12.15;;;;;;;14.54;61.03;100627.56;5042574;28;20120;-53
2023/04/15 09:33:26;;;;;;;17.65;11.25;;;;;;;14.53;60.77;100628.50;5050152;28;20029;-55
2023/04/15 09:36:04;;;;;;;19.45;12.00;;;;;;;14.53;60.58;100623.22;5040048;28;20056;-53
2023/04/15 09:38:31;;;;;;;20.88;12.00;;;;;;;14.53;60.96;100627.66;5038762;28;20033;-54
2023/04/15 09:40:58;;;;;;;21.27;12.50;;;;;;;14.53;60.75;100633.81;5034924;28;20037;-55
2023/04/15 09:43:37;;;;;;;23.30;11.18;;;;;;;14.54;60.69;100626.69;5036010;28;20655;-53
2023/04/15 09:46:03;;;;;;;19.02;11.23;;;;;;;14.54;60.92;100630.19;5042300;28;20025;-52
2023/04/15 09:48:30;;;;;;;21.25;12.40;;;;;;;14.57;60.77;100637.91;5020348;28;20033;-51
2023/04/15 09:51:00;;;;;;;17.52;10.63;;;;;;;14.59;60.83;100633.34;5032742;28;20051;-51
2023/04/15 09:53:41;;;;;;;18.25;11.55;;;;;;;14.59;60.77;100643.06;4990364;28;20029;-54
2023/04/15 09:56:07;;;;;;;16.83;11.15;;;;;;;14.54;60.78;100638.16;5030296;28;20020;-51
2023/04/15 09:58:34;;;;;;;23.85;11.85;;;;;;;14.55;60.80;100637.19;5043903;28;20037;-51
2023/04/15 10:01:03;;;;;;;19.08;10.70;;;;;;;14.55;60.88;100638.97;5037820;28;20030;-50
2023/04/15 10:03:34;;;;;;;18.60;10.82;;;;;;;14.55;60.87;100642.47;5049151;28;20029;-48
2023/04/15 10:06:02;;;;;;;14.50;10.38;;;;;;;14.54;60.79;100646.09;5051007;28;20033;-49
2023/04/15 10:08:31;;;;;;;18.27;10.98;;;;;;;14.54;60.86;100646.09;5046934;28;20095;-52
2023/04/15 10:10:57;;;;;;;19.65;11.48;;;;;;;14.51;60.94;100646.31;5043423;28;20475;-49
2023/04/15 10:13:24;;;;;;;16.85;10.60;;;;;;;14.51;60.75;100645.47;5037648;28;20401;-51
2023/04/15 10:15:58;;;;;;;27.52;14.52;;;;;;;14.48;61.06;100658.00;5049084;28;20155;-53
2023/04/15 10:18:27;;;;;;;31.02;16.48;;;;;;;14.49;61.16;100658.81;5040817;28;20090;-48
2023/04/15 10:20:54;;;;;;;37.88;18.60;;;;;;;14.49;61.21;100658.81;5037727;28;20075;-48
2023/04/15 10:23:21;;;;;;;32.47;17.17;;;;;;;14.52;61.10;100653.28;5040306;28;20505;-48
2023/04/15 10:25:49;;;;;;;15.38;10.48;;;;;;;14.52;61.36;100658.59;5045391;28;20341;-50
2023/04/15 10:28:15;;;;;;;25.95;12.70;;;;;;;14.48;61.30;100658.00;5039874;28;21007;-55
2023/04/15 10:30:42;;;;;;;21.27;12.68;;;;;;;14.48;61.46;100660.63;5034091;28;20035;-51
2023/04/15 10:33:08;;;;;;;24.77;13.07;;;;;;;14.47;61.35;100658.94;5030276;28;20072;-50
2023/04/15 10:35:35;;;;;;;25.02;13.75;;;;;;;14.45;61.44;100658.22;5042621;28;20059;-52
2023/04/15 10:38:01;;;;;;;22.85;11.98;;;;;;;14.44;61.50;100661.81;5038894;28;20044;-54
2023/04/15 10:40:30;;;;;;;28.85;13.57;;;;;;;14.43;61.65;100660.13;5044620;28;20037;-52
2023/04/15 10:43:02;;;;;;;22.65;12.95;;;;;;;14.44;61.50;100666.28;5043222;28;20482;-50
2023/04/15 10:45:36;;;;;;;35.60;16.48;;;;;;;14.44;61.55;100666.28;5036533;28;20538;-49
2023/04/15 10:48:05;;;;;;;45.33;20.38;;;;;;;14.45;61.66;100668.81;5034623;28;20056;-51
2023/04/15 10:50:32;;;;;;;29.13;14.52;;;;;;;14.47;61.46;100672.19;5052251;28;20544;-48
2023/04/15 10:52:58;;;;;;;31.88;14.30;;;;;;;14.48;61.76;100673.00;5047670;28;20059;-48
2023/04/15 10:55:25;;;;;;;15.93;10.38;;;;;;;14.49;61.74;100669.41;5043159;28;20036;-52
2023/04/15 10:57:52;;;;;;;15.02;10.38;;;;;;;14.48;61.93;100668.56;5026658;28;20025;-49
2023/04/15 11:00:20;;;;;;;16.15;10.32;;;;;;;14.55;61.93;100668.97;5040233;28;20032;-52
2023/04/15 11:03:05;;;;;;;14.27;10.25;;;;;;;14.60;62.20;100672.06;5009785;28;20021;-50
2023/04/15 11:05:49;;;;;;;16.80;10.77;;;;;;;14.61;62.52;100673.75;5037489;28;20033;-50